createdAt,value
2023-05-04T00:00:50.737Z,95385.00
2023-05-04T00:01:50.702Z,95387.00
2023-05-04T00:02:50.865Z,95387.00
2023-05-04T00:03:51.060Z,95387.00
2023-05-04T00:04:50.903Z,95387.00
2023-05-04T00:05:50.906Z,95389.00
2023-05-04T00:06:50.909Z,95385.00
2023-05-04T00:07:50.968Z,95389.00
2023-05-04T00:08:50.960Z,95385.00
2023-05-04T00:09:51.035Z,95387.00
2023-05-04T00:10:51.042Z,95385.00
2023-05-04T00:11:51.090Z,95385.00
2023-05-04T00:12:51.121Z,95385.00
2023-05-04T00:13:51.178Z,95385.00
2023-05-04T00:14:51.160Z,95383.00
2023-05-04T00:15:51.347Z,95383.00
2023-05-04T00:16:51.222Z,95383.00
2023-05-04T00:17:51.327Z,95385.00
2023-05-04T00:18:51.345Z,95385.00
2023-05-04T00:19:51.368Z,95381.00
2023-05-04T00:20:51.422Z,95385.00
2023-05-04T00:21:51.473Z,95379.00
2023-05-04T00:22:51.469Z,95379.00
2023-05-04T00:23:51.536Z,95381.00
2023-05-04T00:24:51.540Z,95379.00
2023-05-04T00:25:51.582Z,95379.00
2023-05-04T00:26:51.669Z,95377.00
2023-05-04T00:27:51.712Z,95379.00
2023-05-04T00:28:51.716Z,95377.00
2023-05-04T00:29:51.778Z,95377.00
2023-05-04T00:30:51.840Z,95379.00
2023-05-04T00:31:51.865Z,95379.00
2023-05-04T00:32:51.887Z,95379.00
2023-05-04T00:33:51.966Z,95377.00
2023-05-04T00:34:52.021Z,95379.00
2023-05-04T00:35:52.033Z,95379.00
2023-05-04T00:36:52.089Z,95379.00
2023-05-04T00:37:52.105Z,95377.00
2023-05-04T00:38:52.190Z,95375.00
2023-05-04T00:39:52.217Z,95375.00
2023-05-04T00:40:52.242Z,95373.00
2023-05-04T00:41:52.327Z,95373.00
2023-05-04T00:42:52.320Z,95375.00
2023-05-04T00:43:52.356Z,95377.00
2023-05-04T00:44:52.448Z,95375.00
2023-05-04T00:45:52.459Z,95377.00
2023-05-04T00:46:52.609Z,95373.00
2023-05-04T00:47:52.569Z,95379.00
2023-05-04T00:48:52.586Z,95375.00
2023-05-04T00:49:52.650Z,95377.00
2023-05-04T00:50:52.687Z,95379.00
2023-05-04T00:51:52.704Z,95375.00
2023-05-04T00:52:52.762Z,95377.00
2023-05-04T00:53:52.770Z,95377.00
2023-05-04T00:54:52.891Z,95375.00
2023-05-04T00:55:52.932Z,95377.00
2023-05-04T00:56:52.954Z,95377.00
2023-05-04T00:57:52.996Z,95375.00
2023-05-04T00:58:53.062Z,95371.00
2023-05-04T00:59:53.109Z,95377.00
2023-05-04T01:00:53.153Z,95375.00
2023-05-04T01:01:53.204Z,95377.00
2023-05-04T01:02:53.289Z,95369.00
2023-05-04T01:03:53.293Z,95377.00
2023-05-04T01:04:53.360Z,95375.00
2023-05-04T01:05:53.365Z,95369.00
2023-05-04T01:06:53.415Z,95375.00
2023-05-04T01:07:53.532Z,95373.00
2023-05-04T01:08:53.533Z,95375.00
2023-05-04T01:09:53.592Z,95371.00
2023-05-04T01:10:53.643Z,95373.00
2023-05-04T01:11:53.714Z,95373.00
2023-05-04T01:12:53.806Z,95375.00
2023-05-04T01:13:53.836Z,95371.00
2023-05-04T01:14:53.831Z,95373.00
2023-05-04T01:15:53.946Z,95373.00
2023-05-04T01:16:54.013Z,95371.00
2023-05-04T01:17:54.128Z,95371.00
2023-05-04T01:18:54.094Z,95369.00
2023-05-04T01:19:54.275Z,95371.00
2023-05-04T01:20:54.188Z,95371.00
2023-05-04T01:21:54.239Z,95373.00
2023-05-04T01:22:54.296Z,95375.00
2023-05-04T01:23:54.358Z,95373.00
2023-05-04T01:24:54.430Z,95373.00
2023-05-04T01:25:54.455Z,95375.00
2023-05-04T01:26:54.503Z,95375.00
2023-05-04T01:27:54.584Z,95373.00
2023-05-04T01:28:54.653Z,95371.00
2023-05-04T01:29:54.714Z,95369.00
2023-05-04T01:30:54.720Z,95373.00
2023-05-04T01:31:54.771Z,95369.00
2023-05-04T01:32:54.841Z,95369.00
2023-05-04T01:33:54.868Z,95371.00
2023-05-04T01:34:55.062Z,95375.00
2023-05-04T01:35:54.963Z,95373.00
2023-05-04T01:36:55.046Z,95373.00
2023-05-04T01:37:55.102Z,95373.00
2023-05-04T01:38:55.129Z,95375.00
2023-05-04T01:39:55.222Z,95373.00
2023-05-04T01:40:55.279Z,95373.00
2023-05-04T01:41:55.343Z,95375.00
2023-05-04T01:42:55.392Z,95375.00
2023-05-04T01:43:55.450Z,95369.00
2023-05-04T01:44:55.504Z,95373.00
2023-05-04T01:45:55.595Z,95373.00
2023-05-04T01:46:55.644Z,95373.00
2023-05-04T01:47:55.697Z,95373.00
2023-05-04T01:48:55.708Z,95371.00
2023-05-04T01:49:55.766Z,95367.00
2023-05-04T01:50:55.815Z,95371.00
2023-05-04T01:51:55.860Z,95371.00
2023-05-04T01:52:55.940Z,95369.00
2023-05-04T01:53:55.980Z,95371.00
2023-05-04T01:54:56.016Z,95367.00
2023-05-04T01:55:56.098Z,95371.00
2023-05-04T01:56:56.156Z,95373.00
2023-05-04T01:57:56.221Z,95371.00
2023-05-04T01:58:56.287Z,95371.00
2023-05-04T01:59:56.303Z,95375.00
2023-05-04T02:00:56.364Z,95375.00
2023-05-04T02:01:56.496Z,95373.00
2023-05-04T02:02:56.539Z,95377.00
2023-05-04T02:03:56.622Z,95375.00
2023-05-04T02:04:56.569Z,95375.00
2023-05-04T02:05:56.633Z,95375.00
2023-05-04T02:06:56.687Z,95375.00
2023-05-04T02:07:56.744Z,95377.00
2023-05-04T02:08:56.802Z,95377.00
2023-05-04T02:09:56.866Z,95379.00
2023-05-04T02:10:56.911Z,95377.00
2023-05-04T02:11:56.979Z,95379.00
2023-05-04T02:12:57.065Z,95379.00
2023-05-04T02:13:57.089Z,95377.00
2023-05-04T02:14:57.142Z,95377.00
2023-05-04T02:15:57.255Z,95377.00
2023-05-04T02:16:57.274Z,95377.00
2023-05-04T02:17:57.331Z,95375.00
2023-05-04T02:18:57.374Z,95377.00
2023-05-04T02:19:57.443Z,95377.00
2023-05-04T02:20:57.511Z,95379.00
2023-05-04T02:21:57.568Z,95381.00
2023-05-04T02:22:57.580Z,95377.00
2023-05-04T02:23:57.672Z,95381.00
2023-05-04T02:24:57.731Z,95379.00
2023-05-04T02:25:57.799Z,95379.00
2023-05-04T02:26:57.840Z,95379.00
2023-05-04T02:27:57.912Z,95379.00
2023-05-04T02:28:57.971Z,95377.00
2023-05-04T02:29:58.020Z,95375.00
2023-05-04T02:30:58.079Z,95379.00
2023-05-04T02:31:58.217Z,95377.00
2023-05-04T02:32:58.228Z,95377.00
2023-05-04T02:33:58.256Z,95377.00
2023-05-04T02:34:58.308Z,95377.00
2023-05-04T02:35:58.372Z,95377.00
2023-05-04T02:36:58.430Z,95375.00
2023-05-04T02:37:58.487Z,95379.00
2023-05-04T02:38:58.536Z,95379.00
2023-05-04T02:39:58.596Z,95383.00
2023-05-04T02:40:58.748Z,95383.00
2023-05-04T02:41:58.715Z,95381.00
2023-05-04T02:42:58.777Z,95381.00
2023-05-04T02:43:58.842Z,95381.00
2023-05-04T02:44:58.887Z,95381.00
2023-05-04T02:45:58.956Z,95379.00
2023-05-04T02:46:59.019Z,95379.00
2023-05-04T02:47:59.136Z,95383.00
2023-05-04T02:48:59.134Z,95381.00
2023-05-04T02:49:59.169Z,95381.00
2023-05-04T02:50:59.259Z,95381.00
2023-05-04T02:51:59.316Z,95381.00
2023-05-04T02:52:59.373Z,95381.00
2023-05-04T02:53:59.409Z,95383.00
2023-05-04T02:54:59.521Z,95383.00
2023-05-04T02:55:59.581Z,95385.00
2023-05-04T02:56:59.635Z,95381.00
2023-05-04T02:57:59.698Z,95385.00
2023-05-04T02:58:59.766Z,95383.00
2023-05-04T02:59:59.819Z,95381.00
2023-05-04T03:00:59.911Z,95381.00
2023-05-04T03:01:59.938Z,95379.00
2023-05-04T03:03:00.016Z,95381.00
2023-05-04T03:04:00.096Z,95383.00
2023-05-04T03:05:00.164Z,95379.00
2023-05-04T03:06:00.181Z,95379.00
2023-05-04T03:07:00.230Z,95385.00
2023-05-04T03:08:00.306Z,95379.00
2023-05-04T03:09:00.338Z,95381.00
2023-05-04T03:10:00.396Z,95381.00
2023-05-04T03:11:00.460Z,95381.00
2023-05-04T03:12:00.510Z,95383.00
2023-05-04T03:13:00.607Z,95383.00
2023-05-04T03:14:00.653Z,95387.00
2023-05-04T03:15:00.690Z,95385.00
2023-05-04T03:16:00.783Z,95385.00
2023-05-04T03:17:00.853Z,95387.00
2023-05-04T03:18:00.986Z,95387.00
2023-05-04T03:19:00.913Z,95385.00
2023-05-04T03:20:00.979Z,95385.00
2023-05-04T03:21:01.066Z,95385.00
2023-05-04T03:22:01.095Z,95387.00
2023-05-04T03:23:01.176Z,95387.00
2023-05-04T03:24:01.269Z,95389.00
2023-05-04T03:25:01.268Z,95389.00
2023-05-04T03:26:02.217Z,95391.00
2023-05-04T03:27:01.394Z,95391.00
2023-05-04T03:28:01.442Z,95393.00
2023-05-04T03:29:01.525Z,95389.00
2023-05-04T03:30:01.624Z,95391.00
2023-05-04T03:31:01.612Z,95395.00
2023-05-04T03:32:01.728Z,95397.00
2023-05-04T03:33:01.745Z,95397.00
2023-05-04T03:34:01.793Z,95395.00
2023-05-04T03:35:03.908Z,95395.00
2023-05-04T03:36:01.886Z,95393.00
2023-05-04T03:37:01.955Z,95393.00
2023-05-04T03:38:02.017Z,95397.00
2023-05-04T03:39:02.091Z,95397.00
2023-05-04T03:40:02.186Z,95395.00
2023-05-04T03:41:02.187Z,95397.00
2023-05-04T03:42:02.255Z,95397.00
2023-05-04T03:43:02.307Z,95395.00
2023-05-04T03:44:02.370Z,95395.00
2023-05-04T03:45:03.998Z,95397.00
2023-05-04T03:46:02.532Z,95397.00
2023-05-04T03:47:02.569Z,95397.00
2023-05-04T03:48:02.636Z,95397.00
2023-05-04T03:49:02.650Z,95405.00
2023-05-04T03:50:02.920Z,95397.00
2023-05-04T03:51:02.811Z,95397.00
2023-05-04T03:52:02.835Z,95397.00
2023-05-04T03:53:02.896Z,95405.00
2023-05-04T03:54:02.941Z,95405.00
2023-05-04T03:55:03.001Z,95405.00
2023-05-04T03:56:03.070Z,95397.00
2023-05-04T03:57:03.116Z,95397.00
2023-05-04T03:58:03.196Z,95395.00
2023-05-04T03:59:03.241Z,95393.00
2023-05-04T04:00:03.536Z,95397.00
2023-05-04T04:01:03.374Z,95391.00
2023-05-04T04:02:03.472Z,95420.00
2023-05-04T04:03:03.517Z,95422.00
2023-05-04T04:04:03.911Z,95420.00
2023-05-04T04:05:03.585Z,95424.00
2023-05-04T04:06:03.627Z,95422.00
2023-05-04T04:07:03.718Z,95422.00
2023-05-04T04:08:03.769Z,95424.00
2023-05-04T04:09:03.861Z,95422.00
2023-05-04T04:10:04.025Z,95422.00
2023-05-04T04:11:03.958Z,95424.00
2023-05-04T04:12:04.007Z,95428.00
2023-05-04T04:13:04.136Z,95426.00
2023-05-04T04:14:04.063Z,95426.00
2023-05-04T04:15:04.122Z,95424.00
2023-05-04T04:16:04.135Z,95426.00
2023-05-04T04:17:04.175Z,95424.00
2023-05-04T04:18:04.273Z,95424.00
2023-05-04T04:19:04.248Z,95424.00
2023-05-04T04:20:04.393Z,95424.00
2023-05-04T04:21:04.311Z,95426.00
2023-05-04T04:22:04.306Z,95426.00
2023-05-04T04:23:04.316Z,95424.00
2023-05-04T04:24:04.388Z,95426.00
2023-05-04T04:25:04.352Z,95424.00
2023-05-04T04:26:04.407Z,95424.00
2023-05-04T04:27:04.413Z,95422.00
2023-05-04T04:28:04.407Z,95420.00
2023-05-04T04:29:04.440Z,95420.00
2023-05-04T04:30:04.757Z,95422.00
2023-05-04T04:31:04.445Z,95358.00
2023-05-04T04:32:04.404Z,95362.00
2023-05-04T04:33:04.493Z,95358.00
2023-05-04T04:34:04.497Z,95360.00
2023-05-04T04:35:04.512Z,95364.00
2023-05-04T04:36:04.565Z,95362.00
2023-05-04T04:37:04.506Z,95360.00
2023-05-04T04:38:04.529Z,95362.00
2023-05-04T04:39:04.594Z,95360.00
2023-05-04T04:40:04.876Z,95358.00
2023-05-04T04:41:04.639Z,95358.00
2023-05-04T04:42:04.656Z,95358.00
2023-05-04T04:43:04.743Z,95360.00
2023-05-04T04:44:04.776Z,95360.00
2023-05-04T04:45:04.832Z,95364.00
2023-05-04T04:46:04.832Z,95362.00
2023-05-04T04:47:04.999Z,95366.00
2023-05-04T04:48:05.039Z,95364.00
2023-05-04T04:49:05.062Z,95364.00
2023-05-04T04:50:05.453Z,95364.00
2023-05-04T04:51:05.187Z,95367.00
2023-05-04T04:52:05.249Z,95366.00
2023-05-04T04:53:05.278Z,95364.00
2023-05-04T04:54:05.350Z,95366.00
2023-05-04T04:55:05.438Z,95366.00
2023-05-04T04:56:05.464Z,95362.00
2023-05-04T04:57:05.536Z,95364.00
2023-05-04T04:58:05.582Z,95362.00
2023-05-04T04:59:05.686Z,95364.00
2023-05-04T05:00:06.043Z,95366.00
2023-05-04T05:01:05.758Z,95364.00
2023-05-04T05:02:06.730Z,95367.00
2023-05-04T05:03:05.971Z,95367.00
2023-05-04T05:04:05.998Z,95366.00
2023-05-04T05:05:06.172Z,95369.00
2023-05-04T05:06:06.036Z,95371.00
2023-05-04T05:07:06.113Z,95371.00
2023-05-04T05:08:06.195Z,95369.00
2023-05-04T05:09:06.567Z,95373.00
2023-05-04T05:10:06.394Z,95371.00
2023-05-04T05:11:06.350Z,95369.00
2023-05-04T05:12:06.437Z,95371.00
2023-05-04T05:13:06.446Z,95371.00
2023-05-04T05:14:06.475Z,95369.00
2023-05-04T05:15:06.519Z,95369.00
2023-05-04T05:16:06.674Z,95371.00
2023-05-04T05:17:06.703Z,95371.00
2023-05-04T05:18:06.737Z,95369.00
2023-05-04T05:19:06.705Z,95371.00
2023-05-04T05:20:06.783Z,95369.00
2023-05-04T05:21:06.792Z,95369.00
2023-05-04T05:22:06.846Z,95369.00
2023-05-04T05:23:06.891Z,95373.00
2023-05-04T05:24:06.919Z,95371.00
2023-05-04T05:25:06.958Z,95369.00
2023-05-04T05:26:07.010Z,95366.00
2023-05-04T05:27:07.080Z,95367.00
2023-05-04T05:28:07.121Z,95367.00
2023-05-04T05:29:07.138Z,95366.00
2023-05-04T05:30:07.353Z,95364.00
2023-05-04T05:31:07.289Z,95395.00
2023-05-04T05:32:07.306Z,95395.00
2023-05-04T05:33:07.344Z,95391.00
2023-05-04T05:34:07.364Z,95393.00
2023-05-04T05:35:07.441Z,95395.00
2023-05-04T05:36:07.485Z,95393.00
2023-05-04T05:37:07.622Z,95393.00
2023-05-04T05:38:07.593Z,95391.00
2023-05-04T05:39:07.720Z,95395.00
2023-05-04T05:40:07.983Z,95397.00
2023-05-04T05:41:07.792Z,95395.00
2023-05-04T05:42:07.824Z,95395.00
2023-05-04T05:43:07.897Z,95395.00
2023-05-04T05:44:07.944Z,95393.00
2023-05-04T05:45:08.260Z,95397.00
2023-05-04T05:46:08.100Z,95395.00
2023-05-04T05:47:08.145Z,95424.00
2023-05-04T05:48:08.282Z,95424.00
2023-05-04T05:49:08.242Z,95428.00
2023-05-04T05:50:08.377Z,95426.00
2023-05-04T05:51:08.350Z,95426.00
2023-05-04T05:52:08.408Z,95426.00
2023-05-04T05:53:08.424Z,95424.00
2023-05-04T05:54:08.454Z,95426.00
2023-05-04T05:55:08.543Z,95426.00
2023-05-04T05:56:08.537Z,95424.00
2023-05-04T05:57:08.621Z,95424.00
2023-05-04T05:58:08.611Z,95424.00
2023-05-04T05:59:08.654Z,95426.00
2023-05-04T06:00:08.768Z,95424.00
2023-05-04T06:01:08.735Z,95424.00
2023-05-04T06:02:08.798Z,95422.00
2023-05-04T06:03:08.833Z,95422.00
2023-05-04T06:04:08.883Z,95422.00
2023-05-04T06:05:08.771Z,95420.00
2023-05-04T06:06:08.807Z,95418.00
2023-05-04T06:07:08.777Z,95418.00
2023-05-04T06:08:08.796Z,95416.00
2023-05-04T06:09:08.825Z,95418.00
2023-05-04T06:10:09.004Z,95418.00
2023-05-04T06:11:08.845Z,95418.00
2023-05-04T06:12:08.892Z,95418.00
2023-05-04T06:13:09.393Z,95418.00
2023-05-04T06:14:09.286Z,95418.00
2023-05-04T06:15:08.874Z,95412.00
2023-05-04T06:16:09.330Z,95409.00
2023-05-04T06:17:08.848Z,95411.00
2023-05-04T06:18:09.005Z,95409.00
2023-05-04T06:19:08.859Z,95409.00
2023-05-04T06:20:08.885Z,95407.00
2023-05-04T06:21:08.886Z,95405.00
2023-05-04T06:22:08.889Z,95405.00
2023-05-04T06:23:08.954Z,95405.00
2023-05-04T06:24:08.897Z,95405.00
2023-05-04T06:25:08.926Z,95407.00
2023-05-04T06:26:08.902Z,95407.00
2023-05-04T06:27:08.972Z,95377.00
2023-05-04T06:28:08.960Z,95405.00
2023-05-04T06:29:08.941Z,95397.00
2023-05-04T06:30:09.226Z,95397.00
2023-05-04T06:31:09.080Z,95393.00
2023-05-04T06:32:09.315Z,95397.00
2023-05-04T06:33:09.119Z,95397.00
2023-05-04T06:34:09.024Z,95395.00
2023-05-04T06:35:09.128Z,95377.00
2023-05-04T06:36:09.044Z,95375.00
2023-05-04T06:37:09.027Z,95373.00
2023-05-04T06:38:09.087Z,95369.00
2023-05-04T06:39:09.061Z,95369.00
2023-05-04T06:40:09.246Z,95369.00
2023-05-04T06:41:09.036Z,95369.00
2023-05-04T06:42:09.124Z,95369.00
2023-05-04T06:43:09.752Z,95369.00
2023-05-04T06:44:09.119Z,95369.00
2023-05-04T06:45:09.206Z,95369.00
2023-05-04T06:46:09.332Z,95371.00
2023-05-04T06:47:09.215Z,95367.00
2023-05-04T06:48:09.280Z,95362.00
2023-05-04T06:49:09.440Z,95364.00
2023-05-04T06:50:09.423Z,95362.00
2023-05-04T06:51:09.423Z,95364.00
2023-05-04T06:52:09.493Z,95358.00
2023-05-04T06:53:09.838Z,95360.00
2023-05-04T06:54:09.639Z,95356.00
2023-05-04T06:55:09.666Z,95356.00
2023-05-04T06:56:09.723Z,95356.00
2023-05-04T06:57:09.772Z,95356.00
2023-05-04T06:58:09.795Z,95354.00
2023-05-04T06:59:09.793Z,95356.00
2023-05-04T07:00:10.310Z,95352.00
2023-05-04T07:01:09.819Z,95354.00
2023-05-04T07:02:09.772Z,95350.00
2023-05-04T07:03:09.873Z,95348.00
2023-05-04T07:04:10.020Z,95348.00
2023-05-04T07:05:09.790Z,95350.00
2023-05-04T07:06:09.820Z,95346.00
2023-05-04T07:07:09.840Z,95348.00
2023-05-04T07:08:09.865Z,95348.00
2023-05-04T07:09:09.849Z,95346.00
2023-05-04T07:10:09.916Z,95346.00
2023-05-04T07:11:09.932Z,95346.00
2023-05-04T07:12:09.931Z,95344.00
2023-05-04T07:13:10.073Z,95344.00
2023-05-04T07:14:10.603Z,95342.00
2023-05-04T07:15:09.997Z,95342.00
2023-05-04T07:16:09.974Z,95340.00
2023-05-04T07:17:09.982Z,95340.00
2023-05-04T07:18:10.052Z,95338.00
2023-05-04T07:19:10.016Z,95338.00
2023-05-04T07:20:10.050Z,95336.00
2023-05-04T07:21:25.923Z,95338.00
2023-05-04T07:22:11.048Z,95332.00
2023-05-04T07:23:10.018Z,95334.00
2023-05-04T07:24:10.076Z,95332.00
2023-05-04T07:25:10.301Z,95332.00
2023-05-04T07:26:10.028Z,95332.00
2023-05-04T07:27:10.039Z,95328.00
2023-05-04T07:28:09.966Z,95330.00
2023-05-04T07:29:10.100Z,95328.00
2023-05-04T07:30:10.412Z,95328.00
2023-05-04T07:31:10.000Z,95326.00
2023-05-04T07:32:09.983Z,95326.00
2023-05-04T07:33:09.972Z,95324.00
2023-05-04T07:34:09.986Z,95324.00
2023-05-04T07:35:10.004Z,95324.00
2023-05-04T07:36:09.967Z,95322.00
2023-05-04T07:37:09.942Z,95320.00
2023-05-04T07:38:09.906Z,95320.00
2023-05-04T07:39:10.788Z,95320.00
2023-05-04T07:40:10.058Z,95318.00
2023-05-04T07:41:09.886Z,95340.00
2023-05-04T07:42:09.910Z,95336.00
2023-05-04T07:43:09.885Z,95334.00
2023-05-04T07:44:09.967Z,95330.00
2023-05-04T07:45:10.348Z,95330.00
2023-05-04T07:46:10.099Z,95332.00
2023-05-04T07:47:10.069Z,95324.00
2023-05-04T07:48:10.155Z,95324.00
2023-05-04T07:49:10.111Z,95324.00
2023-05-04T07:50:10.305Z,95320.00
2023-05-04T07:51:10.193Z,95320.00
2023-05-04T07:52:10.166Z,95316.00
2023-05-04T07:53:10.268Z,95314.00
2023-05-04T07:54:10.255Z,95314.00
2023-05-04T07:55:10.224Z,95312.00
2023-05-04T07:56:10.342Z,95307.00
2023-05-04T07:57:10.303Z,95309.00
2023-05-04T07:58:10.278Z,95307.00
2023-05-04T07:59:10.302Z,95301.00
2023-05-04T08:00:10.309Z,95301.00
2023-05-04T08:01:10.484Z,95301.00
2023-05-04T08:02:10.557Z,95299.00
2023-05-04T08:03:10.606Z,95299.00
2023-05-04T08:04:10.446Z,95295.00
2023-05-04T08:05:10.682Z,95295.00
2023-05-04T08:06:10.444Z,95291.00
2023-05-04T08:07:10.451Z,95287.00
2023-05-04T08:08:10.479Z,95291.00
2023-05-04T08:09:10.481Z,95289.00
2023-05-04T08:10:10.501Z,95287.00
2023-05-04T08:11:19.927Z,95281.00
2023-05-04T08:12:11.503Z,95279.00
2023-05-04T08:13:10.624Z,95283.00
2023-05-04T08:14:10.523Z,95281.00
2023-05-04T08:15:10.658Z,95279.00
2023-05-04T08:16:10.486Z,95281.00
2023-05-04T08:17:10.542Z,95279.00
2023-05-04T08:18:10.494Z,95277.00
2023-05-04T08:19:10.522Z,95277.00
2023-05-04T08:20:10.505Z,95275.00
2023-05-04T08:21:10.447Z,95279.00
2023-05-04T08:22:10.463Z,95273.00
2023-05-04T08:23:10.426Z,95275.00
2023-05-04T08:24:10.427Z,95271.00
2023-05-04T08:25:10.439Z,95271.00
2023-05-04T08:26:11.228Z,95273.00
2023-05-04T08:27:10.812Z,95252.00
2023-05-04T08:28:10.569Z,95250.00
2023-05-04T08:29:10.832Z,95248.00
2023-05-04T08:30:10.617Z,95246.00
2023-05-04T08:31:10.678Z,95246.00
2023-05-04T08:32:10.623Z,95244.00
2023-05-04T08:33:10.809Z,95246.00
2023-05-04T08:34:10.708Z,95240.00
2023-05-04T08:35:10.752Z,95246.00
2023-05-04T08:36:10.870Z,95242.00
2023-05-04T08:37:10.855Z,95240.00
2023-05-04T08:38:10.841Z,95238.00
2023-05-04T08:39:10.850Z,95236.00
2023-05-04T08:40:10.918Z,95240.00
2023-05-04T08:41:10.856Z,95242.00
2023-05-04T08:42:10.913Z,95240.00
2023-05-04T08:43:10.906Z,95238.00
2023-05-04T08:44:10.917Z,95238.00
2023-05-04T08:45:11.032Z,95230.00
2023-05-04T08:46:11.056Z,95230.00
2023-05-04T08:47:11.106Z,95234.00
2023-05-04T08:48:11.256Z,95230.00
2023-05-04T08:49:11.174Z,95232.00
2023-05-04T08:50:11.178Z,95234.00
2023-05-04T08:51:11.282Z,95232.00
2023-05-04T08:52:11.269Z,95232.00
2023-05-04T08:53:11.317Z,95230.00
2023-05-04T08:54:11.352Z,95224.00
2023-05-04T08:55:11.360Z,95224.00
2023-05-04T08:56:12.325Z,95222.00
2023-05-04T08:57:11.331Z,95222.00
2023-05-04T08:58:11.379Z,95224.00
2023-05-04T08:59:11.388Z,95222.00
2023-05-04T09:00:11.403Z,95222.00
2023-05-04T09:01:11.518Z,95222.00
2023-05-04T09:02:11.445Z,95222.00
2023-05-04T09:03:11.517Z,95224.00
2023-05-04T09:04:11.456Z,95220.00
2023-05-04T09:05:11.458Z,95218.00
2023-05-04T09:06:11.491Z,95218.00
2023-05-04T09:07:11.476Z,95220.00
2023-05-04T09:08:11.584Z,95218.00
2023-05-04T09:09:11.599Z,95220.00
2023-05-04T09:10:11.617Z,95218.00
2023-05-04T09:11:11.684Z,95218.00
2023-05-04T09:12:11.743Z,95218.00
2023-05-04T09:13:11.872Z,95220.00
2023-05-04T09:14:12.356Z,95218.00
2023-05-04T09:15:11.915Z,95218.00
2023-05-04T09:16:14.692Z,95215.00
2023-05-04T09:17:12.046Z,95217.00
2023-05-04T09:18:12.040Z,95213.00
2023-05-04T09:19:11.961Z,95213.00
2023-05-04T09:20:11.928Z,95209.00
2023-05-04T09:21:11.954Z,95207.00
2023-05-04T09:22:11.923Z,95207.00
2023-05-04T09:23:11.979Z,95203.00
2023-05-04T09:24:11.929Z,95205.00
2023-05-04T09:25:11.879Z,95207.00
2023-05-04T09:26:11.837Z,95203.00
2023-05-04T09:27:11.948Z,95201.00
2023-05-04T09:28:11.891Z,95199.00
2023-05-04T09:29:12.850Z,95201.00
2023-05-04T09:30:11.860Z,95195.00
2023-05-04T09:31:11.948Z,95195.00
2023-05-04T09:32:11.947Z,95195.00
2023-05-04T09:33:11.820Z,95193.00
2023-05-04T09:34:11.963Z,95187.00
2023-05-04T09:35:16.224Z,95187.00
2023-05-04T09:36:12.833Z,95185.00
2023-05-04T09:37:11.847Z,95185.00
2023-05-04T09:38:11.859Z,95187.00
2023-05-04T09:39:11.787Z,95185.00
2023-05-04T09:40:11.827Z,95181.00
2023-05-04T09:41:11.792Z,95179.00
2023-05-04T09:42:11.816Z,95179.00
2023-05-04T09:43:11.785Z,95179.00
2023-05-04T09:44:11.751Z,95177.00
2023-05-04T09:45:11.780Z,95173.00
2023-05-04T09:46:11.982Z,95171.00
2023-05-04T09:47:11.908Z,95169.00
2023-05-04T09:48:12.184Z,95167.00
2023-05-04T09:49:12.066Z,95165.00
2023-05-04T09:50:12.064Z,95165.00
2023-05-04T09:51:12.485Z,95163.00
2023-05-04T09:52:12.372Z,95162.00
2023-05-04T09:53:12.385Z,95163.00
2023-05-04T09:54:12.314Z,95163.00
2023-05-04T09:55:12.380Z,95160.00
2023-05-04T09:56:12.424Z,95160.00
2023-05-04T09:57:13.027Z,95181.00
2023-05-04T09:58:12.548Z,95179.00
2023-05-04T09:59:12.612Z,95175.00
2023-05-04T10:00:12.662Z,95177.00
2023-05-04T10:01:12.768Z,95175.00
2023-05-04T10:02:22.035Z,95175.00
2023-05-04T10:03:13.969Z,95171.00
2023-05-04T10:04:12.753Z,95169.00
2023-05-04T10:05:12.746Z,95169.00
2023-05-04T10:06:12.699Z,95169.00
2023-05-04T10:07:12.802Z,95169.00
2023-05-04T10:08:12.733Z,95167.00
2023-05-04T10:09:12.726Z,95165.00
2023-05-04T10:10:12.655Z,95163.00
2023-05-04T10:11:12.702Z,95160.00
2023-05-04T10:12:12.703Z,95156.00
2023-05-04T10:13:12.748Z,95154.00
2023-05-04T10:14:12.678Z,95150.00
2023-05-04T10:15:12.659Z,95150.00
2023-05-04T10:16:12.642Z,95148.00
2023-05-04T10:17:13.817Z,95148.00
2023-05-04T10:18:12.637Z,95148.00
2023-05-04T10:19:12.652Z,95138.00
2023-05-04T10:20:12.651Z,95136.00
2023-05-04T10:21:12.808Z,95136.00
2023-05-04T10:22:12.713Z,95134.00
2023-05-04T10:23:12.703Z,95132.00
2023-05-04T10:24:12.714Z,95132.00
2023-05-04T10:25:12.734Z,95109.00
2023-05-04T10:26:12.733Z,95107.00
2023-05-04T10:27:12.777Z,95107.00
2023-05-04T10:28:13.013Z,95103.00
2023-05-04T10:29:12.876Z,95103.00
2023-05-04T10:30:12.916Z,95105.00
2023-05-04T10:31:12.982Z,95099.00
2023-05-04T10:32:12.963Z,95099.00
2023-05-04T10:33:13.061Z,95097.00
2023-05-04T10:34:13.065Z,95097.00
2023-05-04T10:35:13.116Z,95095.00
2023-05-04T10:36:13.179Z,95097.00
2023-05-04T10:37:13.219Z,95093.00
2023-05-04T10:38:13.387Z,95091.00
2023-05-04T10:39:13.258Z,95089.00
2023-05-04T10:40:13.358Z,95085.00
2023-05-04T10:41:13.424Z,95087.00
2023-05-04T10:42:13.427Z,95085.00
2023-05-04T10:43:13.463Z,95081.00
2023-05-04T10:44:13.496Z,95079.00
2023-05-04T10:45:13.539Z,95079.00
2023-05-04T10:46:13.668Z,95077.00
2023-05-04T10:47:13.613Z,95077.00
2023-05-04T10:48:13.825Z,95075.00
2023-05-04T10:49:13.672Z,95071.00
2023-05-04T10:50:13.736Z,95071.00
2023-05-04T10:51:13.704Z,95071.00
2023-05-04T10:52:13.757Z,95069.00
2023-05-04T10:53:13.757Z,95069.00
2023-05-04T10:54:13.744Z,95065.00
2023-05-04T10:55:13.859Z,95063.00
2023-05-04T10:56:13.826Z,95065.00
2023-05-04T10:57:13.845Z,95063.00
2023-05-04T10:58:13.884Z,95060.00
2023-05-04T10:59:13.891Z,95056.00
2023-05-04T11:00:13.886Z,95052.00
2023-05-04T11:01:13.920Z,95054.00
2023-05-04T11:02:13.905Z,95052.00
2023-05-04T11:03:14.141Z,95048.00
2023-05-04T11:04:13.915Z,95046.00
2023-05-04T11:05:13.928Z,95042.00
2023-05-04T11:06:13.939Z,95040.00
2023-05-04T11:07:14.027Z,95038.00
2023-05-04T11:08:14.009Z,95036.00
2023-05-04T11:09:13.975Z,95034.00
2023-05-04T11:10:13.992Z,95032.00
2023-05-04T11:11:14.037Z,95030.00
2023-05-04T11:12:13.985Z,95026.00
2023-05-04T11:13:14.293Z,95028.00
2023-05-04T11:14:14.081Z,95028.00
2023-05-04T11:15:14.073Z,95030.00
2023-05-04T11:16:14.110Z,95028.00
2023-05-04T11:18:14.501Z,95024.00
2023-05-04T11:19:14.343Z,95024.00
2023-05-04T11:20:14.435Z,95024.00
2023-05-04T11:21:14.021Z,95020.00
2023-05-04T11:22:14.000Z,95020.00
2023-05-04T11:23:14.423Z,95020.00
2023-05-04T11:24:13.961Z,95018.00
2023-05-04T11:25:13.941Z,95013.00
2023-05-04T11:26:13.971Z,95013.00
2023-05-04T11:27:13.972Z,95015.00
2023-05-04T11:28:14.313Z,95015.00
2023-05-04T11:29:14.105Z,95013.00
2023-05-04T11:30:13.996Z,95009.00
2023-05-04T11:31:14.070Z,95009.00
2023-05-04T11:32:13.993Z,95007.00
2023-05-04T11:33:13.911Z,95003.00
2023-05-04T11:34:13.902Z,95005.00
2023-05-04T11:35:13.884Z,95001.00
2023-05-04T11:36:13.860Z,94999.00
2023-05-04T11:37:13.924Z,94999.00
2023-05-04T11:38:13.863Z,95001.00
2023-05-04T11:39:13.918Z,95001.00
2023-05-04T11:40:13.938Z,94997.00
2023-05-04T11:41:13.861Z,94997.00
2023-05-04T11:42:13.935Z,94997.00
2023-05-04T11:43:13.856Z,94995.00
2023-05-04T11:44:13.873Z,94991.00
2023-05-04T11:45:13.819Z,94991.00
2023-05-04T11:46:13.922Z,94989.00